Terminal Aerodrome Forecast
Issued by NWS

Current Version | Previous Version | Graphics & Text | Print | Product List | Glossary On
Versions: 1 2 3 4 5 6 7 8 9 10 11 12 13 14 15 16 17 18 19 20
000
FTUS41 KPBZ 201138
TAFHLG
TAF
KHLG 201138Z 2012/2112 10005KT 5SM BR SCT250
     FM201400 20005KT P6SM BKN100
     FM202300 21005KT 5SM -RA BR OVC040
     FM210100 13005KT 2SM -RA BR OVC015
     FM210300 VRB03KT 3SM -RA BR OVC008
     FM210700 30005KT P6SM OVC008=

USA.gov is the U.S. government's official web portal to all federal, state and local government web resources and services.